Time;durP1;ratioP1;P1;durP2;ratioP2;P2;SDS_P1;SDS_P2;PMS_P1;PMS_P2;Temp;Humidity;BMP_temperature;BMP_pressure;BME280_temperature;BME280_humidity;BME280_pressure;Samples;Min_cycle;Max_cycle;Signal;HPM_P1;HPM_P2
2021/03/01 00:01:50;;;;;;;46.33;21.63;;;1.90;99.90;;;;;;4991663;28;20025;-80
2021/03/01 00:04:16;;;;;;;44.60;20.27;;;1.90;99.90;;;;;;4974972;28;20480;-80
2021/03/01 00:06:42;;;;;;;47.08;20.20;;;1.90;99.90;;;;;;4993316;28;20390;-80
2021/03/01 00:09:08;;;;;;;48.75;21.25;;;1.90;99.90;;;;;;4993620;28;20019;-80
2021/03/01 00:11:33;;;;;;;42.13;20.63;;;1.90;99.90;;;;;;4993475;28;20089;-79
2021/03/01 00:14:00;;;;;;;53.60;25.42;;;1.90;99.90;;;;;;4975904;28;20451;-80
2021/03/01 00:16:25;;;;;;;113.85;51.17;;;1.90;99.90;;;;;;4993566;28;20507;-79
2021/03/01 00:18:51;;;;;;;58.33;22.55;;;2.00;99.90;;;;;;4993474;28;20070;-80
2021/03/01 00:21:17;;;;;;;49.47;23.73;;;2.00;99.90;;;;;;4993591;28;20372;-80
2021/03/01 00:23:43;;;;;;;59.10;24.52;;;1.90;99.90;;;;;;4975715;28;20031;-81
2021/03/01 00:26:10;;;;;;;45.88;22.60;;;2.00;99.90;;;;;;4992992;28;20510;-79
2021/03/01 00:28:35;;;;;;;54.28;22.42;;;1.90;99.90;;;;;;4993355;28;20026;-80
2021/03/01 00:31:01;;;;;;;48.97;20.92;;;1.90;99.90;;;;;;4993494;28;20448;-80
2021/03/01 00:33:27;;;;;;;44.05;18.48;;;2.00;99.90;;;;;;4975877;28;20031;-80
2021/03/01 00:35:52;;;;;;;41.97;20.40;;;1.90;99.90;;;;;;4976225;28;20118;-80
2021/03/01 00:38:18;;;;;;;50.33;21.35;;;2.00;99.90;;;;;;4992908;28;20074;-80
2021/03/01 00:40:44;;;;;;;42.50;19.38;;;2.00;99.90;;;;;;4992026;28;20026;-79
2021/03/01 00:43:09;;;;;;;50.25;20.55;;;2.00;99.90;;;;;;4975968;28;20030;-79
2021/03/01 00:45:35;;;;;;;46.22;19.85;;;2.00;99.90;;;;;;4991712;28;20057;-80
2021/03/01 00:48:01;;;;;;;41.90;19.60;;;2.00;99.90;;;;;;4993277;28;20023;-80
2021/03/01 00:50:26;;;;;;;49.08;21.05;;;2.10;99.90;;;;;;4993243;28;20058;-80
2021/03/01 00:52:52;;;;;;;45.40;20.58;;;2.00;99.90;;;;;;4991701;28;20073;-80
2021/03/01 00:55:18;;;;;;;46.05;19.10;;;2.10;99.90;;;;;;4993176;28;20511;-80
2021/03/01 00:57:44;;;;;;;45.00;20.45;;;2.00;99.90;;;;;;4993078;28;20035;-80
2021/03/01 01:00:17;;;;;;;54.65;23.25;;;2.10;99.90;;;;;;4993154;28;20034;-80
2021/03/01 01:02:44;;;;;;;46.92;19.75;;;2.10;99.90;;;;;;4993149;28;20041;-80
2021/03/01 01:05:10;;;;;;;45.70;20.75;;;2.10;99.90;;;;;;4993123;28;20116;-80
2021/03/01 01:07:36;;;;;;;47.42;22.00;;;2.10;99.90;;;;;;4992816;28;20015;-80
2021/03/01 01:10:06;;;;;;;45.03;20.35;;;2.20;99.90;;;;;;4975888;28;20361;-80
2021/03/01 01:12:35;;;;;;;47.95;19.95;;;2.20;99.90;;;;;;4993325;28;20031;-80
2021/03/01 01:15:02;;;;;;;39.17;18.13;;;2.10;99.90;;;;;;4979164;28;20037;-80
2021/03/01 01:17:28;;;;;;;41.15;17.75;;;2.10;99.90;;;;;;4996490;28;20065;-80
2021/03/01 01:19:53;;;;;;;42.97;18.98;;;2.10;99.90;;;;;;4996566;28;20463;-80
2021/03/01 01:22:19;;;;;;;44.28;16.85;;;2.10;99.90;;;;;;4996299;28;20547;-80
2021/03/01 01:24:45;;;;;;;41.13;19.77;;;2.10;99.90;;;;;;4995210;28;20062;-80
2021/03/01 01:27:10;;;;;;;45.42;19.52;;;2.20;99.90;;;;;;4996526;28;20027;-80
2021/03/01 01:29:36;;;;;;;43.13;17.50;;;2.10;99.90;;;;;;4996322;28;20106;-80
2021/03/01 01:32:02;;;;;;;41.38;19.73;;;2.20;99.90;;;;;;4994668;28;20030;-80
2021/03/01 01:34:28;;;;;;;43.30;18.17;;;2.20;99.90;;;;;;4994966;28;20066;-80
2021/03/01 01:36:54;;;;;;;47.05;19.77;;;2.20;99.90;;;;;;4996172;28;20060;-79
2021/03/01 01:39:19;;;;;;;42.10;18.40;;;2.30;99.90;;;;;;4996135;28;20045;-80
2021/03/01 01:41:45;;;;;;;37.92;17.98;;;2.20;99.90;;;;;;4978729;28;20026;-79
2021/03/01 01:44:11;;;;;;;58.45;26.60;;;2.20;99.90;;;;;;4996199;28;20026;-80
2021/03/01 01:46:36;;;;;;;41.63;18.65;;;2.20;99.90;;;;;;4978520;28;20388;-80
2021/03/01 01:49:02;;;;;;;50.35;20.42;;;2.20;99.90;;;;;;4978636;28;20392;-80
2021/03/01 01:51:28;;;;;;;47.92;21.17;;;2.20;99.90;;;;;;4995756;28;20068;-80
2021/03/01 01:53:54;;;;;;;45.05;18.98;;;2.20;99.90;;;;;;4995995;28;20019;-80
2021/03/01 01:56:20;;;;;;;43.85;18.88;;;2.20;99.90;;;;;;4978436;28;20182;-81
2021/03/01 01:58:45;;;;;;;43.28;19.55;;;2.20;99.90;;;;;;4978436;28;20045;-81
2021/03/01 02:01:11;;;;;;;43.95;18.60;;;2.10;99.90;;;;;;4978410;28;20022;-80
2021/03/01 02:03:43;;;;;;;44.90;19.58;;;2.10;99.90;;;;;;4995709;28;20026;-80
2021/03/01 02:06:31;;;;;;;44.80;19.03;;;2.10;99.90;;;;;;4978310;28;20030;-79
2021/03/01 02:09:09;;;;;;;45.67;19.92;;;2.10;99.90;;;;;;4978046;28;20285;-80
2021/03/01 02:11:52;;;;;;;42.97;18.55;;;2.10;99.90;;;;;;4995388;28;20018;-79
2021/03/01 02:14:46;;;;;;;40.22;18.23;;;2.10;99.90;;;;;;4994199;28;20462;-80
2021/03/01 02:17:12;;;;;;;43.95;18.67;;;2.20;99.90;;;;;;4994423;28;20030;-80
2021/03/01 02:19:38;;;;;;;42.75;18.67;;;2.10;99.90;;;;;;4977971;28;20081;-80
2021/03/01 02:22:04;;;;;;;48.97;19.95;;;2.10;99.90;;;;;;4995239;28;20018;-80
2021/03/01 02:24:34;;;;;;;45.80;21.40;;;2.10;99.90;;;;;;4994279;28;20022;-81
2021/03/01 02:26:59;;;;;;;47.10;19.70;;;2.10;99.90;;;;;;4995313;28;20054;-80
2021/03/01 02:29:27;;;;;;;43.10;21.65;;;2.10;99.90;;;;;;4995258;28;20077;-79
2021/03/01 02:31:57;;;;;;;46.65;18.90;;;2.10;99.90;;;;;;4977857;28;20464;-80
2021/03/01 02:34:27;;;;;;;44.15;19.55;;;2.20;99.90;;;;;;4995360;28;20484;-81
2021/03/01 02:36:59;;;;;;;47.00;19.63;;;2.20;99.90;;;;;;4977640;28;20475;-80
2021/03/01 02:39:29;;;;;;;47.33;19.63;;;2.20;99.90;;;;;;4994666;28;20113;-80
2021/03/01 02:41:56;;;;;;;41.72;20.23;;;2.10;99.90;;;;;;4993950;28;20022;-81
2021/03/01 02:44:23;;;;;;;45.05;19.83;;;2.10;99.90;;;;;;4995052;28;20029;-81
2021/03/01 02:46:49;;;;;;;51.33;20.42;;;2.20;99.90;;;;;;4994689;28;20023;-80
2021/03/01 02:49:17;;;;;;;42.63;18.27;;;2.10;99.90;;;;;;4994928;28;20464;-80
2021/03/01 02:51:45;;;;;;;52.70;19.67;;;2.10;99.90;;;;;;4994922;28;20031;-80
2021/03/01 02:54:12;;;;;;;42.65;19.08;;;2.10;99.90;;;;;;4994750;28;20026;-79
2021/03/01 02:56:39;;;;;;;49.85;20.20;;;2.10;99.90;;;;;;4976440;28;20037;-80
2021/03/01 02:59:07;;;;;;;51.00;19.88;;;2.10;99.90;;;;;;4977202;28;20069;-80
2021/03/01 03:01:34;;;;;;;41.28;20.48;;;2.10;99.90;;;;;;4977193;28;20029;-80
2021/03/01 03:04:01;;;;;;;50.50;20.08;;;2.20;99.90;;;;;;4977142;28;20049;-80
2021/03/01 03:06:29;;;;;;;45.33;20.73;;;2.20;99.90;;;;;;4977164;28;20037;-80
2021/03/01 03:08:55;;;;;;;49.10;19.73;;;2.10;99.90;;;;;;4976894;28;20062;-80
2021/03/01 03:11:24;;;;;;;49.92;19.42;;;2.10;99.90;;;;;;4994526;28;20531;-80
2021/03/01 03:13:53;;;;;;;46.40;19.33;;;2.10;99.90;;;;;;4993185;28;20022;-80
2021/03/01 03:16:23;;;;;;;44.30;19.15;;;2.10;99.90;;;;;;4994393;28;20357;-80
2021/03/01 03:18:50;;;;;;;46.20;20.05;;;2.20;99.90;;;;;;4976831;28;20045;-80
2021/03/01 03:21:16;;;;;;;51.97;20.65;;;2.20;99.90;;;;;;4996219;28;20053;-80
2021/03/01 03:23:42;;;;;;;44.40;20.15;;;2.20;99.90;;;;;;5013773;28;20026;-81
2021/03/01 03:26:09;;;;;;;49.65;22.88;;;2.20;99.90;;;;;;5013944;28;20026;-81
2021/03/01 03:28:34;;;;;;;53.50;22.23;;;2.20;99.90;;;;;;5013765;28;20018;-81
2021/03/01 03:31:00;;;;;;;50.40;20.23;;;2.20;99.90;;;;;;5013829;28;20026;-80
2021/03/01 03:33:26;;;;;;;40.35;17.83;;;2.20;99.90;;;;;;5013427;28;20104;-81
2021/03/01 03:35:52;;;;;;;45.15;20.80;;;2.20;99.90;;;;;;5013694;28;20117;-80
2021/03/01 03:38:22;;;;;;;41.53;17.40;;;2.30;99.90;;;;;;5002227;28;20117;-80
2021/03/01 03:40:50;;;;;;;43.25;18.38;;;2.20;99.90;;;;;;4994567;28;20057;-80
2021/03/01 03:43:18;;;;;;;41.13;17.17;;;2.20;99.90;;;;;;4994049;28;20065;-80
2021/03/01 03:45:45;;;;;;;44.47;20.80;;;2.20;99.90;;;;;;4976688;28;20506;-80
2021/03/01 03:48:13;;;;;;;52.25;19.88;;;2.20;99.90;;;;;;4993910;28;20054;-80
2021/03/01 03:50:40;;;;;;;48.80;19.02;;;2.20;99.90;;;;;;4976422;28;20030;-80
2021/03/01 03:53:10;;;;;;;48.13;19.15;;;2.20;99.90;;;;;;4993870;28;20061;-80
2021/03/01 03:55:37;;;;;;;42.38;19.40;;;2.20;99.90;;;;;;4976090;28;20518;-80
2021/03/01 03:58:10;;;;;;;43.72;19.27;;;2.20;99.90;;;;;;4976498;28;20034;-80
2021/03/01 04:00:37;;;;;;;41.83;18.00;;;2.20;99.90;;;;;;4993627;28;20065;-81
2021/03/01 04:03:10;;;;;;;48.40;21.48;;;2.30;99.90;;;;;;4993806;28;20106;-80
2021/03/01 04:05:39;;;;;;;52.28;19.95;;;2.30;99.90;;;;;;4976212;28;20064;-80
2021/03/01 04:08:08;;;;;;;48.22;20.42;;;2.20;99.90;;;;;;4975972;28;20022;-80
2021/03/01 04:10:36;;;;;;;44.45;20.00;;;2.20;99.90;;;;;;4993281;28;20026;-80
2021/03/01 04:13:06;;;;;;;45.65;19.95;;;2.20;99.90;;;;;;4993649;28;20019;-80
2021/03/01 04:15:34;;;;;;;44.58;18.42;;;2.20;99.90;;;;;;4993521;28;20030;-80
2021/03/01 04:18:01;;;;;;;46.95;20.30;;;2.20;99.90;;;;;;4993539;28;20066;-80
2021/03/01 04:20:27;;;;;;;45.08;18.95;;;2.20;99.90;;;;;;4993430;28;20105;-80
2021/03/01 04:22:56;;;;;;;44.03;19.08;;;2.20;99.90;;;;;;4993552;28;20026;-81
2021/03/01 04:25:22;;;;;;;49.25;19.35;;;2.20;99.90;;;;;;4993150;28;20031;-82
2021/03/01 04:27:49;;;;;;;47.45;19.75;;;2.20;99.90;;;;;;4976023;28;20018;-80
2021/03/01 04:30:16;;;;;;;47.10;18.63;;;2.20;99.90;;;;;;4992188;28;20026;-81
2021/03/01 04:32:46;;;;;;;43.28;20.17;;;2.20;99.90;;;;;;4992078;28;20014;-80
2021/03/01 04:35:15;;;;;;;47.95;19.73;;;2.20;99.90;;;;;;4993694;28;20034;-81
2021/03/01 04:37:41;;;;;;;51.03;19.13;;;2.20;99.90;;;;;;4993011;28;20072;-80
2021/03/01 04:40:07;;;;;;;52.42;19.40;;;2.20;99.90;;;;;;4993353;28;20035;-80
2021/03/01 04:42:35;;;;;;;43.88;19.52;;;2.20;99.90;;;;;;4993328;28;20035;-80
2021/03/01 04:45:01;;;;;;;39.75;18.02;;;2.20;99.90;;;;;;4993215;28;20031;-80
2021/03/01 04:47:29;;;;;;;46.95;19.27;;;2.20;99.90;;;;;;4977568;28;20037;-80
2021/03/01 04:49:55;;;;;;;50.47;19.98;;;2.20;99.90;;;;;;4996849;28;20031;-81
2021/03/01 04:52:21;;;;;;;45.78;18.70;;;2.10;99.90;;;;;;4995801;28;20441;-80
2021/03/01 04:54:48;;;;;;;49.65;19.70;;;2.10;99.90;;;;;;4995803;28;20019;-80
2021/03/01 04:57:16;;;;;;;41.03;17.92;;;2.10;99.90;;;;;;4997093;28;20037;-81
2021/03/01 04:59:43;;;;;;;48.35;20.67;;;2.10;99.90;;;;;;4995311;28;20065;-81
2021/03/01 05:02:10;;;;;;;49.65;17.88;;;2.10;99.90;;;;;;4996732;28;20040;-80
2021/03/01 05:04:36;;;;;;;49.10;20.75;;;2.10;99.90;;;;;;4996859;28;20101;-80
2021/03/01 05:07:07;;;;;;;50.80;19.83;;;2.00;99.90;;;;;;4996969;28;20023;-80
2021/03/01 05:09:35;;;;;;;48.88;18.48;;;2.00;99.90;;;;;;4979301;28;20389;-80
2021/03/01 05:12:01;;;;;;;48.55;20.05;;;2.10;99.90;;;;;;4997094;28;20015;-80
2021/03/01 05:14:27;;;;;;;55.33;21.63;;;2.10;99.90;;;;;;4996700;28;20080;-80
2021/03/01 05:16:52;;;;;;;49.50;20.05;;;2.00;99.90;;;;;;4979197;28;20488;-79
2021/03/01 05:19:18;;;;;;;54.35;20.98;;;2.10;99.90;;;;;;4996186;28;20066;-80
2021/03/01 05:21:44;;;;;;;54.67;22.83;;;2.00;99.90;;;;;;4996583;28;20026;-80
2021/03/01 05:24:10;;;;;;;49.47;21.20;;;2.00;99.90;;;;;;4996576;28;20400;-80
2021/03/01 05:26:36;;;;;;;47.97;19.25;;;2.10;99.90;;;;;;4996516;28;20052;-79
2021/03/01 05:29:04;;;;;;;46.78;20.17;;;2.10;99.90;;;;;;4996495;28;20030;-80
2021/03/01 05:31:29;;;;;;;53.13;20.08;;;2.10;99.90;;;;;;4996344;28;20487;-80
2021/03/01 05:33:55;;;;;;;50.47;19.60;;;2.10;99.90;;;;;;4978929;28;20022;-80
2021/03/01 05:36:21;;;;;;;61.92;21.00;;;2.10;99.90;;;;;;4996378;28;20175;-80
2021/03/01 05:38:46;;;;;;;57.80;22.90;;;2.10;99.90;;;;;;4995905;28;20498;-80
2021/03/01 05:41:12;;;;;;;59.88;22.45;;;2.20;99.90;;;;;;4994799;28;20400;-79
2021/03/01 05:43:38;;;;;;;49.60;21.23;;;2.10;99.90;;;;;;4996120;28;20022;-81
2021/03/01 05:46:04;;;;;;;81.68;34.25;;;2.20;99.90;;;;;;4978686;28;20035;-80
2021/03/01 05:48:30;;;;;;;63.42;26.25;;;2.20;99.90;;;;;;4995974;28;20376;-81
2021/03/01 05:51:02;;;;;;;110.38;41.95;;;2.20;99.90;;;;;;4978585;28;20036;-80
2021/03/01 05:53:35;;;;;;;136.18;50.70;;;2.20;99.90;;;;;;4995966;28;20033;-81
2021/03/01 05:56:01;;;;;;;110.70;38.83;;;2.30;99.90;;;;;;4996029;28;20105;-80
2021/03/01 05:58:27;;;;;;;60.47;25.98;;;2.30;99.90;;;;;;4995039;28;20186;-81
2021/03/01 06:01:06;;;;;;;56.75;23.00;;;2.30;99.90;;;;;;4995953;28;20022;-80
2021/03/01 06:03:37;;;;;;;54.22;20.85;;;2.30;99.90;;;;;;4978002;28;20037;-80
2021/03/01 06:06:05;;;;;;;54.65;21.60;;;2.20;99.90;;;;;;4995820;28;20030;-80
2021/03/01 06:08:31;;;;;;;46.70;20.45;;;2.20;99.90;;;;;;4994498;28;20022;-81
2021/03/01 06:10:58;;;;;;;53.45;23.13;;;2.20;99.90;;;;;;4995720;28;20022;-79
2021/03/01 06:13:25;;;;;;;58.90;24.33;;;2.20;99.90;;;;;;4995543;28;20023;-80
2021/03/01 06:15:56;;;;;;;66.00;24.55;;;2.20;99.90;;;;;;4992276;28;20030;-80
2021/03/01 06:18:23;;;;;;;68.97;25.25;;;2.20;99.90;;;;;;5015143;28;20076;-79
2021/03/01 06:20:50;;;;;;;81.50;29.83;;;2.20;99.90;;;;;;5016347;28;20049;-80
2021/03/01 06:23:35;;;;;;;471.08;188.82;;;2.20;99.90;;;;;;5010572;28;20030;-79
2021/03/01 06:26:25;;;;;;;96.50;32.45;;;2.20;99.90;;;;;;4994251;28;20033;-80
2021/03/01 06:28:54;;;;;;;88.32;31.98;;;2.20;99.90;;;;;;4994786;28;20023;-80
2021/03/01 06:31:46;;;;;;;121.65;40.13;;;2.30;99.90;;;;;;4992694;28;20073;-80
2021/03/01 06:34:32;;;;;;;117.70;38.28;;;2.30;99.90;;;;;;4977703;28;20036;-80
2021/03/01 06:37:05;;;;;;;299.45;93.68;;;2.30;99.90;;;;;;5010320;28;20038;-79
2021/03/01 06:39:32;;;;;;;540.53;234.73;;;2.40;99.90;;;;;;4993788;28;20492;-80
2021/03/01 06:42:18;;;;;;;250.43;93.85;;;2.40;99.90;;;;;;4977451;28;20023;-79
2021/03/01 06:44:56;;;;;;;255.43;88.20;;;2.40;99.90;;;;;;4973814;28;20031;-79
2021/03/01 06:47:42;;;;;;;152.20;53.05;;;2.40;99.90;;;;;;4993100;28;20029;-80
2021/03/01 06:50:23;;;;;;;76.93;29.80;;;2.50;99.90;;;;;;4995022;28;20033;-80
2021/03/01 06:52:49;;;;;;;99.25;37.72;;;2.50;99.90;;;;;;4993320;28;20022;-80
2021/03/01 06:55:15;;;;;;;136.85;56.33;;;2.50;99.90;;;;;;4998070;28;20474;-79
2021/03/01 06:57:41;;;;;;;149.48;52.58;;;2.50;99.90;;;;;;5002206;28;20018;-79
2021/03/01 07:00:07;;;;;;;228.10;67.75;;;2.50;99.90;;;;;;4993087;28;20080;-80
2021/03/01 07:02:37;;;;;;;209.70;63.95;;;2.50;99.90;;;;;;5003670;28;20033;-80
2021/03/01 07:05:03;;;;;;;84.78;31.30;;;2.50;99.90;;;;;;4998313;28;20029;-80
2021/03/01 07:07:39;;;;;;;138.95;45.30;;;2.50;99.90;;;;;;5003152;28;20109;-80
2021/03/01 07:10:06;;;;;;;150.30;56.55;;;2.50;99.90;;;;;;5001464;28;20017;-79
2021/03/01 07:12:58;;;;;;;129.63;49.40;;;2.50;99.90;;;;;;4993805;28;20076;-79
2021/03/01 07:15:24;;;;;;;94.53;31.27;;;2.50;99.90;;;;;;4995179;28;20118;-79
2021/03/01 07:17:50;;;;;;;146.35;50.58;;;2.50;99.90;;;;;;5003705;28;20109;-79
2021/03/01 07:20:16;;;;;;;100.85;35.38;;;2.40;99.90;;;;;;4993445;28;20029;-80
2021/03/01 07:22:44;;;;;;;82.78;32.72;;;2.40;99.90;;;;;;4989852;28;20101;-79
2021/03/01 07:25:14;;;;;;;83.72;33.63;;;2.50;99.90;;;;;;5003092;28;20026;-80
2021/03/01 07:27:42;;;;;;;58.45;25.23;;;2.50;99.90;;;;;;4992993;28;20546;-79
2021/03/01 07:30:10;;;;;;;71.32;30.95;;;2.50;99.90;;;;;;5004240;28;20076;-80
2021/03/01 07:32:38;;;;;;;95.25;33.58;;;2.50;99.90;;;;;;5008682;28;20034;-80
2021/03/01 07:35:06;;;;;;;102.22;38.22;;;2.50;99.90;;;;;;5004811;28;20034;-79
2021/03/01 07:37:36;;;;;;;86.22;33.88;;;2.60;99.90;;;;;;4996607;28;20050;-79
2021/03/01 07:40:07;;;;;;;97.10;36.83;;;2.60;99.90;;;;;;4992675;28;20424;-80
2021/03/01 07:42:36;;;;;;;83.47;34.25;;;2.70;99.90;;;;;;4992633;28;20503;-79
2021/03/01 07:45:03;;;;;;;82.53;32.60;;;2.70;99.90;;;;;;4993932;28;20022;-79
2021/03/01 07:47:29;;;;;;;69.10;26.50;;;2.70;99.90;;;;;;4987698;28;20022;-79
2021/03/01 07:49:55;;;;;;;56.75;24.92;;;2.70;99.90;;;;;;4993913;28;20034;-79
2021/03/01 07:52:33;;;;;;;72.30;27.27;;;2.70;99.90;;;;;;4976431;28;20011;-80
2021/03/01 07:55:10;;;;;;;85.15;32.08;;;2.70;99.90;;;;;;4976377;28;20018;-80
2021/03/01 07:57:40;;;;;;;80.78;31.52;;;2.80;99.90;;;;;;4993857;28;20192;-80
2021/03/01 08:00:33;;;;;;;89.70;35.22;;;2.80;99.90;;;;;;4976033;28;20380;-79
2021/03/01 08:03:01;;;;;;;77.97;31.13;;;2.80;99.90;;;;;;4985664;28;20562;-79
2021/03/01 08:05:26;;;;;;;54.33;22.77;;;2.80;99.90;;;;;;4993635;28;20097;-79
2021/03/01 08:07:53;;;;;;;76.00;30.92;;;2.80;99.90;;;;;;4976186;28;20132;-79
2021/03/01 08:10:40;;;;;;;70.80;30.40;;;2.80;99.90;;;;;;4992220;28;20014;-80
2021/03/01 08:13:07;;;;;;;61.78;25.20;;;2.90;99.90;;;;;;4993479;28;20026;-80
2021/03/01 08:15:38;;;;;;;59.20;24.02;;;2.90;99.90;;;;;;4993500;28;20030;-80
2021/03/01 08:18:04;;;;;;;58.13;21.58;;;3.00;99.90;;;;;;4976123;28;20073;-79
2021/03/01 08:20:36;;;;;;;48.00;19.08;;;2.90;99.90;;;;;;4996240;28;20030;-80
2021/03/01 08:23:02;;;;;;;56.45;23.45;;;3.00;99.90;;;;;;4995882;28;20031;-80
2021/03/01 08:25:48;;;;;;;63.08;27.88;;;3.00;99.90;;;;;;4993571;28;20032;-80
2021/03/01 08:28:19;;;;;;;50.03;20.88;;;3.00;99.90;;;;;;4993713;28;20022;-79
2021/03/01 08:30:55;;;;;;;77.68;31.13;;;3.00;99.90;;;;;;4993230;28;20049;-80
2021/03/01 08:33:29;;;;;;;48.20;21.60;;;3.10;99.90;;;;;;4976112;28;20049;-80
2021/03/01 08:36:14;;;;;;;45.78;21.08;;;3.10;99.90;;;;;;4976326;28;20176;-80
2021/03/01 08:38:43;;;;;;;45.10;21.45;;;3.10;99.90;;;;;;4965821;28;20432;-80
2021/03/01 08:41:31;;;;;;;52.70;20.83;;;3.10;99.90;;;;;;4974127;28;20027;-79
2021/03/01 08:43:58;;;;;;;43.67;20.83;;;3.10;99.90;;;;;;4974132;28;20023;-80
2021/03/01 08:46:24;;;;;;;46.95;18.77;;;3.10;99.90;;;;;;4972783;28;20041;-80
2021/03/01 08:48:56;;;;;;;45.28;18.73;;;3.20;99.90;;;;;;4985864;28;20030;-80
2021/03/01 08:51:23;;;;;;;35.60;17.23;;;3.20;99.90;;;;;;4993547;28;20022;-80
2021/03/01 08:53:53;;;;;;;29.13;14.95;;;3.20;99.90;;;;;;4973722;28;20440;-80
2021/03/01 08:56:25;;;;;;;34.97;16.77;;;3.20;99.90;;;;;;4990852;28;20023;-80
2021/03/01 08:58:51;;;;;;;38.90;15.45;;;3.20;99.90;;;;;;4993738;28;20046;-80
2021/03/01 09:01:16;;;;;;;35.20;14.68;;;3.10;99.90;;;;;;5012865;28;20105;-81
2021/03/01 09:03:43;;;;;;;40.50;17.42;;;3.20;99.90;;;;;;5011380;28;20108;-81
2021/03/01 09:06:22;;;;;;;38.53;16.45;;;3.30;99.90;;;;;;5011817;28;20443;-81
2021/03/01 09:08:51;;;;;;;43.33;16.98;;;3.40;99.90;;;;;;5011634;28;20026;-81
2021/03/01 09:11:19;;;;;;;30.50;13.88;;;3.40;99.90;;;;;;5011996;28;20482;-80
2021/03/01 09:13:47;;;;;;;33.95;15.13;;;3.50;99.90;;;;;;4994394;28;20021;-81
2021/03/01 09:16:24;;;;;;;42.45;17.73;;;3.60;99.90;;;;;;5012504;28;20032;-80
2021/03/01 09:19:10;;;;;;;39.42;18.80;;;3.60;99.90;;;;;;5011357;28;20030;-81
2021/03/01 09:21:40;;;;;;;43.40;20.35;;;3.70;99.90;;;;;;4994386;28;20129;-80
2021/03/01 09:24:11;;;;;;;47.03;23.05;;;3.80;99.90;;;;;;5012640;28;20033;-80
2021/03/01 09:26:41;;;;;;;54.40;21.88;;;3.80;99.90;;;;;;4997475;28;20026;-80
2021/03/01 09:29:08;;;;;;;63.17;26.58;;;3.80;99.90;;;;;;5001559;28;20045;-80
2021/03/01 09:31:54;;;;;;;43.88;20.65;;;3.80;99.90;;;;;;5006710;28;20391;-80
2021/03/01 09:34:26;;;;;;;50.88;19.80;;;3.80;99.90;;;;;;5014045;28;20026;-81
2021/03/01 09:36:52;;;;;;;46.47;18.70;;;3.80;99.90;;;;;;5016060;28;20022;-80
2021/03/01 09:39:21;;;;;;;42.55;17.45;;;3.80;99.90;;;;;;4998214;28;20392;-80
2021/03/01 09:41:48;;;;;;;69.43;30.83;;;3.80;99.90;;;;;;4998231;28;20030;-80
2021/03/01 09:44:36;;;;;;;63.40;30.65;;;3.80;99.90;;;;;;5015801;28;20029;-80
2021/03/01 09:47:02;;;;;;;84.50;39.33;;;3.90;99.90;;;;;;4998262;28;20029;-80
2021/03/01 09:49:34;;;;;;;88.80;34.45;;;3.90;99.90;;;;;;4997963;28;20034;-80
2021/03/01 09:52:00;;;;;;;58.22;28.50;;;4.00;99.90;;;;;;5015759;28;20022;-79
2021/03/01 09:54:26;;;;;;;44.92;22.60;;;3.90;99.90;;;;;;5015437;28;20030;-79
2021/03/01 09:56:54;;;;;;;58.00;27.70;;;3.90;99.90;;;;;;4985140;28;20125;-80
2021/03/01 09:59:31;;;;;;;42.85;18.20;;;3.90;99.90;;;;;;5001234;28;20038;-80
2021/03/01 10:02:07;;;;;;;52.30;23.30;;;3.80;99.90;;;;;;4996014;28;20110;-80
2021/03/01 10:04:33;;;;;;;72.57;29.15;;;3.80;99.90;;;;;;5010859;28;20030;-80
2021/03/01 10:07:21;;;;;;;31.27;15.70;;;3.90;99.90;;;;;;4995867;28;20023;-80
2021/03/01 10:09:47;;;;;;;52.53;26.33;;;3.80;99.90;;;;;;4996793;28;20092;-80
2021/03/01 10:12:14;;;;;;;116.13;54.30;;;3.90;99.90;;;;;;5008445;28;20011;-79
2021/03/01 10:14:40;;;;;;;124.85;52.03;;;3.90;99.90;;;;;;5015175;28;20022;-80
2021/03/01 10:17:19;;;;;;;55.78;23.58;;;4.00;99.90;;;;;;5015212;28;20037;-79
2021/03/01 10:19:45;;;;;;;49.67;21.77;;;4.00;99.90;;;;;;5015171;28;20041;-79
2021/03/01 10:22:11;;;;;;;51.67;20.48;;;4.00;99.90;;;;;;5010865;28;20015;-79
2021/03/01 10:24:43;;;;;;;42.10;16.38;;;4.00;99.90;;;;;;4994014;28;20374;-80
2021/03/01 10:27:10;;;;;;;44.85;19.58;;;3.90;99.90;;;;;;4993746;28;20110;-80
2021/03/01 10:29:43;;;;;;;51.92;23.77;;;3.80;99.90;;;;;;4993969;28;20031;-80
2021/03/01 10:32:26;;;;;;;97.10;44.25;;;3.90;99.90;;;;;;4994150;28;20026;-79
2021/03/01 10:34:54;;;;;;;46.83;21.45;;;3.90;99.90;;;;;;4994227;28;20038;-80
2021/03/01 10:37:26;;;;;;;72.45;29.90;;;3.90;99.90;;;;;;4976880;28;20018;-80
2021/03/01 10:39:53;;;;;;;74.38;28.23;;;3.90;99.90;;;;;;4992005;28;20030;-80
2021/03/01 10:42:24;;;;;;;84.93;32.45;;;3.90;99.90;;;;;;4992635;28;20023;-81
2021/03/01 10:45:03;;;;;;;54.83;23.38;;;3.80;99.90;;;;;;4993590;28;20058;-80
2021/03/01 10:47:33;;;;;;;109.72;41.17;;;3.90;99.90;;;;;;4993718;28;20146;-80
2021/03/01 10:50:20;;;;;;;80.88;33.42;;;3.90;99.90;;;;;;4994989;28;20488;-80
2021/03/01 10:52:45;;;;;;;71.97;30.67;;;4.00;99.90;;;;;;4994691;28;20038;-80
2021/03/01 10:55:11;;;;;;;73.65;28.77;;;3.90;99.90;;;;;;4994952;28;20153;-80
2021/03/01 10:57:37;;;;;;;65.80;27.63;;;4.00;99.90;;;;;;4977272;28;20015;-80
2021/03/01 11:00:04;;;;;;;40.47;17.20;;;4.00;99.90;;;;;;4977389;28;20105;-80
2021/03/01 11:02:30;;;;;;;53.38;24.95;;;4.00;99.90;;;;;;4995301;28;20479;-80
2021/03/01 11:04:56;;;;;;;50.58;22.17;;;4.00;99.90;;;;;;4991681;28;20040;-80
2021/03/01 11:07:22;;;;;;;29.83;12.93;;;4.10;99.90;;;;;;4992604;28;20447;-80
2021/03/01 11:09:47;;;;;;;29.95;13.15;;;4.10;99.90;;;;;;4993277;28;20069;-80
2021/03/01 11:12:14;;;;;;;27.05;12.82;;;4.00;99.90;;;;;;4993788;28;20030;-79
2021/03/01 11:14:40;;;;;;;31.98;13.68;;;4.00;99.90;;;;;;4994442;28;20026;-80
2021/03/01 11:17:05;;;;;;;36.15;14.88;;;3.90;99.90;;;;;;4977079;28;20029;-80
2021/03/01 11:19:31;;;;;;;32.58;13.77;;;3.80;99.90;;;;;;4994295;28;20439;-80
2021/03/01 11:21:57;;;;;;;33.05;14.77;;;3.80;99.90;;;;;;4994436;28;20022;-79
2021/03/01 11:24:23;;;;;;;33.42;13.60;;;3.80;99.90;;;;;;4993501;28;20519;-80
2021/03/01 11:26:52;;;;;;;32.22;15.35;;;3.80;99.90;;;;;;4989811;28;20045;-81
2021/03/01 11:29:19;;;;;;;31.65;14.38;;;3.80;99.90;;;;;;4989087;28;20050;-81
2021/03/01 11:31:45;;;;;;;27.05;13.52;;;3.90;99.90;;;;;;4993403;28;20018;-80
2021/03/01 11:34:11;;;;;;;33.65;14.60;;;3.80;99.90;;;;;;4993325;28;20057;-81
2021/03/01 11:36:38;;;;;;;28.63;14.13;;;3.80;99.90;;;;;;4993525;28;20110;-81
2021/03/01 11:39:05;;;;;;;28.40;13.50;;;3.80;99.90;;;;;;4993103;28;20078;-81
2021/03/01 11:41:30;;;;;;;30.50;13.20;;;3.80;99.90;;;;;;4993377;28;20030;-81
2021/03/01 11:43:56;;;;;;;33.63;14.80;;;3.80;99.90;;;;;;4993334;28;20574;-81
2021/03/01 11:46:22;;;;;;;55.00;22.85;;;3.90;99.90;;;;;;4992024;28;20014;-80
2021/03/01 11:48:48;;;;;;;30.35;13.05;;;4.00;99.90;;;;;;4990563;28;20061;-80
2021/03/01 11:51:15;;;;;;;30.45;14.35;;;4.00;99.90;;;;;;4983084;28;20396;-81
2021/03/01 11:53:41;;;;;;;37.50;15.88;;;4.00;99.90;;;;;;4975336;28;20141;-81
2021/03/01 11:56:08;;;;;;;19.83;10.52;;;4.10;99.90;;;;;;4976016;28;20026;-80
2021/03/01 11:58:38;;;;;;;29.13;12.98;;;4.10;99.90;;;;;;4992563;28;20026;-81
2021/03/01 12:01:04;;;;;;;18.73;9.85;;;4.20;99.90;;;;;;4991531;28;20026;-80
2021/03/01 12:03:30;;;;;;;24.98;12.43;;;4.10;99.90;;;;;;4988118;28;20490;-81
2021/03/01 12:05:56;;;;;;;18.55;10.45;;;4.20;99.90;;;;;;4993594;28;20058;-81
2021/03/01 12:08:21;;;;;;;23.88;10.95;;;4.20;99.90;;;;;;4993641;28;20054;-80
2021/03/01 12:10:47;;;;;;;25.08;11.55;;;4.20;99.90;;;;;;4993535;28;20074;-81
2021/03/01 12:13:13;;;;;;;22.00;10.20;;;4.20;99.90;;;;;;4993611;28;20030;-80
2021/03/01 12:15:38;;;;;;;39.45;18.00;;;4.10;99.90;;;;;;4992459;28;20093;-82
2021/03/01 12:18:04;;;;;;;42.08;17.73;;;4.10;99.90;;;;;;4993396;28;20547;-80
2021/03/01 12:20:30;;;;;;;39.75;16.60;;;4.10;99.90;;;;;;4993407;28;20443;-81
2021/03/01 12:22:56;;;;;;;38.05;16.92;;;4.00;99.90;;;;;;4993355;28;20396;-80
2021/03/01 12:25:22;;;;;;;37.15;17.10;;;4.00;99.90;;;;;;4976838;28;20018;-81
2021/03/01 12:27:48;;;;;;;28.95;13.90;;;4.10;99.90;;;;;;4984506;28;20109;-81
2021/03/01 12:30:14;;;;;;;91.60;35.67;;;4.00;99.90;;;;;;4993485;28;20129;-82
2021/03/01 12:32:40;;;;;;;46.40;20.25;;;3.90;99.90;;;;;;4993280;28;20072;-81
2021/03/01 12:35:06;;;;;;;29.63;14.07;;;3.90;99.90;;;;;;4993322;28;20064;-81
2021/03/01 12:37:32;;;;;;;28.85;13.00;;;3.90;99.90;;;;;;4992517;28;20145;-81
2021/03/01 12:39:57;;;;;;;37.97;15.50;;;3.90;99.90;;;;;;4993377;28;20108;-81
2021/03/01 12:42:24;;;;;;;47.33;20.85;;;3.90;99.90;;;;;;4993260;28;20034;-80
2021/03/01 12:44:50;;;;;;;40.92;19.60;;;3.90;99.90;;;;;;4975769;28;20168;-81